Ceuta, Spain
Current Conditions -  °F | °C
As of 11:50 PM on Tuesday 21 Oct 2014 (Local Time) from LXGB Reporting Station
Clear Clear  
Wind Chill: 68°   Ceiling: Unl
Heat Index: 68°   Visibility: 4mi
Dew Point: 66°   Wind: 3mph
Humidity: 94%   Direction: 50°NE
Pressure: 30.27"   Gusts: NA
Location:  35.89°N, 5.32°W
Report Text: LXGB 212150Z AUTO 05003KT 7000 // NCD 20/19 Q1025
Loading
Personal Weather Stations






























Interactive Weather Map New forecast layout! Learn more

10-Day Weather Forecast

Advertisements
Track Severe Weather on mobile